Time,TemperatureF,DewpointF,PressureIn,WindDirection,WindDirectionDegrees,WindSpeedMPH,WindSpeedGustMPH,Humidity,HourlyPrecipIn,Conditions,Clouds,dailyrainin,SoftwareType,DateUTC
2013-07-02 00:05:00,43.4,40.0,30.24,NE,36,0.0,-999.0,89,-99.99,,,0.00,weatherlink.com 1.10,2013-07-02 04:05:00,
2013-07-02 00:20:00,43.1,40.0,30.24,NE,36,0.0,-999.0,89,-99.99,,,0.00,weatherlink.com 1.10,2013-07-02 04:20:00,
2013-07-02 00:35:00,42.8,40.0,30.24,NE,36,0.0,-999.0,90,-99.99,,,0.00,weatherlink.com 1.10,2013-07-02 04:35:00,
2013-07-02 00:50:00,42.5,40.0,30.24,NE,36,0.0,-999.0,90,-99.99,,,0.00,weatherlink.com 1.10,2013-07-02 04:50:00,
2013-07-02 01:04:00,42.2,40.0,30.24,NE,36,0.0,-999.0,90,-99.99,,,0.00,weatherlink.com 1.10,2013-07-02 05:04:00,
2013-07-02 01:20:00,41.9,39.0,30.24,NE,36,0.0,-999.0,90,-99.99,,,0.00,weatherlink.com 1.10,2013-07-02 05:20:00,
2013-07-02 01:35:00,41.8,39.0,30.24,NE,36,0.0,-999.0,90,-99.99,,,0.00,weatherlink.com 1.10,2013-07-02 05:35:00,
2013-07-02 01:50:00,41.6,39.0,30.24,NE,36,0.0,-999.0,90,-99.99,,,0.00,weatherlink.com 1.10,2013-07-02 05:50:00,
2013-07-02 02:05:00,41.5,39.0,30.23,NE,36,0.0,-999.0,90,-99.99,,,0.00,weatherlink.com 1.10,2013-07-02 06:05:00,
2013-07-02 02:20:00,41.5,39.0,30.23,NE,36,0.0,-999.0,90,-99.99,,,0.00,weatherlink.com 1.10,2013-07-02 06:20:00,
2013-07-02 02:35:00,41.4,39.0,30.23,NE,36,0.0,-999.0,90,-99.99,,,0.00,weatherlink.com 1.10,2013-07-02 06:35:00,
2013-07-02 02:50:00,41.2,39.0,30.23,NE,36,0.0,-999.0,90,-99.99,,,0.00,weatherlink.com 1.10,2013-07-02 06:50:00,
2013-07-02 03:05:00,41.1,39.0,30.23,NE,36,0.0,-999.0,91,-99.99,,,0.00,weatherlink.com 1.10,2013-07-02 07:05:00,
2013-07-02 03:20:00,40.9,39.0,30.23,NE,36,0.0,-999.0,91,-99.99,,,0.00,weatherlink.com 1.10,2013-07-02 07:20:00,
2013-07-02 03:35:00,40.6,38.0,30.23,NE,36,0.0,-999.0,91,-99.99,,,0.00,weatherlink.com 1.10,2013-07-02 07:35:00,
2013-07-02 03:50:00,40.5,38.0,30.23,NE,36,0.0,-999.0,91,-99.99,,,0.00,weatherlink.com 1.10,2013-07-02 07:50:00,
2013-07-02 04:05:00,40.4,38.0,30.23,NE,36,0.0,-999.0,91,-99.99,,,0.00,weatherlink.com 1.10,2013-07-02 08:05:00,
2013-07-02 04:20:00,40.5,38.0,30.23,NE,36,0.0,-999.0,91,-99.99,,,0.00,weatherlink.com 1.10,2013-07-02 08:20:00,
2013-07-02 04:35:00,40.5,38.0,30.23,NE,36,0.0,-999.0,91,-99.99,,,0.00,weatherlink.com 1.10,2013-07-02 08:35:00,
2013-07-02 04:50:00,40.7,39.0,30.23,NE,36,0.0,-999.0,92,-99.99,,,0.00,weatherlink.com 1.10,2013-07-02 08:50:00,
2013-07-02 05:04:00,40.8,39.0,30.23,NE,36,0.0,-999.0,92,-99.99,,,0.00,weatherlink.com 1.10,2013-07-02 09:04:00,
2013-07-02 05:20:00,40.9,39.0,30.23,NE,36,0.0,-999.0,92,-99.99,,,0.00,weatherlink.com 1.10,2013-07-02 09:20:00,
2013-07-02 05:35:00,40.8,39.0,30.23,NE,36,0.0,-999.0,92,-99.99,,,0.00,weatherlink.com 1.10,2013-07-02 09:35:00,
2013-07-02 05:50:00,40.9,39.0,30.23,NE,36,0.0,-999.0,92,-99.99,,,0.00,weatherlink.com 1.10,2013-07-02 09:50:00,
2013-07-02 06:05:00,40.8,39.0,30.23,NE,36,0.0,-999.0,92,-99.99,,,0.00,weatherlink.com 1.10,2013-07-02 10:05:00,
2013-07-02 06:20:00,40.8,39.0,30.23,NE,36,0.0,-999.0,92,-99.99,,,0.00,weatherlink.com 1.10,2013-07-02 10:20:00,
2013-07-02 06:35:00,40.7,39.0,30.23,NE,36,0.0,-999.0,92,-99.99,,,0.00,weatherlink.com 1.10,2013-07-02 10:35:00,
2013-07-02 06:50:00,41.0,39.0,30.23,NE,36,0.0,-999.0,92,-99.99,,,0.00,weatherlink.com 1.10,2013-07-02 10:50:00,
2013-07-02 07:05:00,41.6,40.0,30.23,NE,36,0.0,-999.0,93,-99.99,,,0.00,weatherlink.com 1.10,2013-07-02 11:05:00,
2013-07-02 07:20:00,42.2,40.0,30.23,NE,36,0.0,-999.0,92,-99.99,,,0.00,weatherlink.com 1.10,2013-07-02 11:20:00,
2013-07-02 07:35:00,43.1,41.0,30.23,NE,36,0.0,-999.0,93,-99.99,,,0.00,weatherlink.com 1.10,2013-07-02 11:35:00,
2013-07-02 07:50:00,44.2,42.0,30.23,NE,36,0.0,-999.0,93,-99.99,,,0.00,weatherlink.com 1.10,2013-07-02 11:50:00,
2013-07-02 08:05:00,45.4,44.0,30.24,NE,36,0.0,-999.0,93,-99.99,,,0.00,weatherlink.com 1.10,2013-07-02 12:05:00,
2013-07-02 08:20:00,46.9,45.0,30.23,NE,36,0.0,-999.0,93,-99.99,,,0.00,weatherlink.com 1.10,2013-07-02 12:20:00,
2013-07-02 08:35:00,48.7,47.0,30.23,NE,36,0.0,-999.0,92,-99.99,,,0.00,weatherlink.com 1.10,2013-07-02 12:35:00,
2013-07-02 08:50:00,51.5,48.0,30.22,NE,36,0.0,-999.0,87,-99.99,,,0.00,weatherlink.com 1.10,2013-07-02 12:50:00,
2013-07-02 09:04:00,56.2,48.0,30.23,NE,36,0.0,-999.0,74,-99.99,,,0.00,weatherlink.com 1.10,2013-07-02 13:04:00,
2013-07-02 09:20:00,58.6,45.0,30.23,NE,41,0.0,-999.0,61,-99.99,,,0.00,weatherlink.com 1.10,2013-07-02 13:20:00,
2013-07-02 09:35:00,59.0,44.0,30.23,NE,41,0.0,-999.0,59,-99.99,,,0.00,weatherlink.com 1.10,2013-07-02 13:35:00,
2013-07-02 09:50:00,59.7,48.0,30.22,NE,42,1.0,-999.0,65,-99.99,,,0.00,weatherlink.com 1.10,2013-07-02 13:50:00,
2013-07-02 10:05:00,60.9,49.0,30.23,ENE,73,0.0,-999.0,64,-99.99,,,0.00,weatherlink.com 1.10,2013-07-02 14:05:00,
2013-07-02 10:20:00,60.5,48.0,30.22,ENE,58,1.0,-999.0,63,-99.99,,,0.00,weatherlink.com 1.10,2013-07-02 14:20:00,
2013-07-02 10:35:00,60.7,48.0,30.22,ENE,59,1.0,-999.0,64,-99.99,,,0.00,weatherlink.com 1.10,2013-07-02 14:35:00,
2013-07-02 10:50:00,61.0,49.0,30.22,ENE,71,0.0,-999.0,65,-99.99,,,0.00,weatherlink.com 1.10,2013-07-02 14:50:00,
2013-07-02 11:05:00,61.4,49.0,30.22,NE,55,2.0,-999.0,64,-99.99,,,0.00,weatherlink.com 1.10,2013-07-02 15:05:00,
2013-07-02 11:20:00,60.9,49.0,30.22,NE,48,2.0,-999.0,66,-99.99,,,0.00,weatherlink.com 1.10,2013-07-02 15:20:00,
2013-07-02 11:35:00,63.4,54.0,30.21,NE,48,0.0,-999.0,71,-99.99,,,0.00,weatherlink.com 1.10,2013-07-02 15:35:00,
2013-07-02 11:50:00,64.8,51.0,30.21,NE,51,1.0,-999.0,62,-99.99,,,0.00,weatherlink.com 1.10,2013-07-02 15:50:00,
2013-07-02 12:05:00,65.0,52.0,30.21,ENE,60,2.0,-999.0,64,-99.99,,,0.00,weatherlink.com 1.10,2013-07-02 16:05:00,
2013-07-02 12:20:00,64.6,52.0,30.21,ESE,105,1.0,-999.0,64,-99.99,,,0.00,weatherlink.com 1.10,2013-07-02 16:20:00,
2013-07-02 12:35:00,64.0,52.0,30.21,ENE,59,1.0,-999.0,66,-99.99,,,0.00,weatherlink.com 1.10,2013-07-02 16:35:00,
2013-07-02 12:50:00,63.6,52.0,30.21,NNE,33,1.0,-999.0,65,-99.99,,,0.00,weatherlink.com 1.10,2013-07-02 16:50:00,
2013-07-02 13:04:00,64.0,53.0,30.21,NE,44,2.0,-999.0,68,-99.99,,,0.00,weatherlink.com 1.10,2013-07-02 17:04:00,
2013-07-02 13:20:00,63.6,52.0,30.21,SSW,200,0.0,-999.0,67,-99.99,,,0.00,weatherlink.com 1.10,2013-07-02 17:20:00,
2013-07-02 13:35:00,63.7,52.0,30.20,NNE,32,0.0,-999.0,66,-99.99,,,0.00,weatherlink.com 1.10,2013-07-02 17:35:00,
2013-07-02 13:50:00,63.4,52.0,30.20,NE,48,1.0,-999.0,66,-99.99,,,0.00,weatherlink.com 1.10,2013-07-02 17:50:00,
2013-07-02 14:05:00,63.0,51.0,30.21,NE,43,1.0,-999.0,65,-99.99,,,0.00,weatherlink.com 1.10,2013-07-02 18:05:00,
2013-07-02 14:20:00,62.3,51.0,30.21,NE,48,2.0,-999.0,66,-99.99,,,0.00,weatherlink.com 1.10,2013-07-02 18:20:00,
2013-07-02 14:34:00,62.7,50.0,30.20,NE,40,1.0,-999.0,63,-99.99,,,0.00,weatherlink.com 1.10,2013-07-02 18:34:00,
2013-07-02 14:49:00,62.9,51.0,30.20,NE,45,0.0,-999.0,66,-99.99,,,0.00,weatherlink.com 1.10,2013-07-02 18:49:00,
2013-07-02 15:04:00,63.5,48.0,30.20,NNE,33,0.0,-999.0,57,-99.99,,,0.00,weatherlink.com 1.10,2013-07-02 19:04:00,
2013-07-02 15:19:00,63.8,45.0,30.19,NE,39,1.0,-999.0,51,-99.99,,,0.00,weatherlink.com 1.10,2013-07-02 19:19:00,
2013-07-02 15:34:00,63.7,43.0,30.19,ENE,67,0.0,-999.0,47,-99.99,,,0.00,weatherlink.com 1.10,2013-07-02 19:34:00,
2013-07-02 15:49:00,63.6,43.0,30.19,SSW,193,0.0,-999.0,48,-99.99,,,0.00,weatherlink.com 1.10,2013-07-02 19:49:00,
2013-07-02 16:04:00,63.6,42.0,30.18,NE,51,0.0,-999.0,46,-99.99,,,0.00,weatherlink.com 1.10,2013-07-02 20:04:00,
2013-07-02 16:19:00,63.3,44.0,30.17,NE,53,1.0,-999.0,49,-99.99,,,0.00,weatherlink.com 1.10,2013-07-02 20:19:00,
2013-07-02 16:34:00,63.4,44.0,30.17,NE,42,0.0,-999.0,49,-99.99,,,0.00,weatherlink.com 1.10,2013-07-02 20:34:00,
2013-07-02 16:49:00,63.8,47.0,30.17,NE,38,2.0,-999.0,55,-99.99,,,0.00,weatherlink.com 1.10,2013-07-02 20:49:00,
2013-07-02 17:04:00,62.9,46.0,30.17,NE,38,0.0,-999.0,54,-99.99,,,0.00,weatherlink.com 1.10,2013-07-02 21:04:00,
2013-07-02 17:19:00,63.1,47.0,30.16,NE,34,0.0,-999.0,56,-99.99,,,0.00,weatherlink.com 1.10,2013-07-02 21:19:00,
2013-07-02 17:34:00,63.2,48.0,30.16,NE,34,1.0,-999.0,57,-99.99,,,0.00,weatherlink.com 1.10,2013-07-02 21:34:00,
2013-07-02 17:49:00,63.4,48.0,30.16,NE,37,1.0,-999.0,57,-99.99,,,0.00,weatherlink.com 1.10,2013-07-02 21:49:00,
2013-07-02 18:04:00,63.5,48.0,30.16,NE,44,0.0,-999.0,57,-99.99,,,0.00,weatherlink.com 1.10,2013-07-02 22:04:00,
2013-07-02 18:19:00,63.3,48.0,30.15,ENE,78,1.0,-999.0,57,-99.99,,,0.00,weatherlink.com 1.10,2013-07-02 22:19:00,
2013-07-02 18:34:00,63.2,48.0,30.15,ENE,78,0.0,-999.0,58,-99.99,,,0.00,weatherlink.com 1.10,2013-07-02 22:34:00,
2013-07-02 18:49:00,62.9,48.0,30.15,ENE,69,1.0,-999.0,58,-99.99,,,0.00,weatherlink.com 1.10,2013-07-02 22:49:00,
2013-07-02 19:04:00,63.0,48.0,30.14,ENE,71,1.0,-999.0,58,-99.99,,,0.00,weatherlink.com 1.10,2013-07-02 23:04:00,
2013-07-02 19:19:00,62.9,49.0,30.14,ENE,71,0.0,-999.0,60,-99.99,,,0.00,weatherlink.com 1.10,2013-07-02 23:19:00,
2013-07-02 19:34:00,62.4,47.0,30.14,ENE,71,0.0,-999.0,57,-99.99,,,0.00,weatherlink.com 1.10,2013-07-02 23:34:00,
2013-07-02 19:49:00,61.9,44.0,30.14,ENE,71,0.0,-999.0,52,-99.99,,,0.00,weatherlink.com 1.10,2013-07-02 23:49:00,
2013-07-02 20:04:00,61.5,44.0,30.13,ENE,71,0.0,-999.0,54,-99.99,,,0.00,weatherlink.com 1.10,2013-07-03 00:04:00,
2013-07-02 20:19:00,60.7,46.0,30.13,ENE,71,0.0,-999.0,59,-99.99,,,0.00,weatherlink.com 1.10,2013-07-03 00:19:00,
2013-07-02 20:34:00,59.7,45.0,30.13,ENE,71,0.0,-999.0,59,-99.99,,,0.00,weatherlink.com 1.10,2013-07-03 00:34:00,
2013-07-02 20:49:00,58.7,45.0,30.13,ENE,71,0.0,-999.0,60,-99.99,,,0.00,weatherlink.com 1.10,2013-07-03 00:49:00,
2013-07-02 21:04:00,57.6,44.0,30.13,ENE,71,0.0,-999.0,62,-99.99,,,0.00,weatherlink.com 1.10,2013-07-03 01:04:00,
2013-07-02 21:20:00,56.7,46.0,30.13,ENE,71,0.0,-999.0,67,-99.99,,,0.00,weatherlink.com 1.10,2013-07-03 01:20:00,
2013-07-02 21:35:00,55.7,47.0,30.13,ENE,71,0.0,-999.0,72,-99.99,,,0.00,weatherlink.com 1.10,2013-07-03 01:35:00,
2013-07-02 22:05:00,53.5,46.0,30.13,ENE,71,0.0,-999.0,77,-99.99,,,0.00,weatherlink.com 1.10,2013-07-03 02:05:00,
2013-07-02 22:20:00,52.3,46.0,30.13,ENE,71,0.0,-999.0,78,-99.99,,,0.00,weatherlink.com 1.10,2013-07-03 02:20:00,
2013-07-02 22:35:00,51.4,44.0,30.14,ENE,71,0.0,-999.0,77,-99.99,,,0.00,weatherlink.com 1.10,2013-07-03 02:35:00,
2013-07-02 22:50:00,50.5,44.0,30.14,ENE,71,0.0,-999.0,78,-99.99,,,0.00,weatherlink.com 1.10,2013-07-03 02:50:00,
2013-07-02 23:05:00,49.9,44.0,30.14,ENE,71,0.0,-999.0,79,-99.99,,,0.00,weatherlink.com 1.10,2013-07-03 03:05:00,
2013-07-02 23:20:00,49.4,44.0,30.13,ENE,71,0.0,-999.0,80,-99.99,,,0.00,weatherlink.com 1.10,2013-07-03 03:20:00,
2013-07-02 23:35:00,49.3,44.0,30.13,ENE,71,0.0,-999.0,82,-99.99,,,0.00,weatherlink.com 1.10,2013-07-03 03:35:00,
2013-07-02 23:50:00,49.2,44.0,30.13,ENE,71,0.0,-999.0,82,-99.99,,,0.00,weatherlink.com 1.10,2013-07-03 03:50:00,